Time;durP1;ratioP1;P1;durP2;ratioP2;P2;SDS_P1;SDS_P2;PMS_P1;PMS_P2;Temp;Humidity;BMP_temperature;BMP_pressure;BME280_temperature;BME280_humidity;BME280_pressure;Samples;Min_cycle;Max_cycle;Signal;HPM_P1;HPM_P2
2023/07/05 00:02:17;;;;;;;11.57;9.55;;;;;;;22.68;54.69;93841.19;5055252;28;20033;-72
2023/07/05 00:04:45;;;;;;;11.18;9.75;;;;;;;22.72;54.45;93844.69;5055453;28;20165;-73
2023/07/05 00:07:10;;;;;;;10.75;9.05;;;;;;;22.66;54.60;93851.66;5055588;28;20070;-72
2023/07/05 00:09:35;;;;;;;12.45;10.07;;;;;;;22.61;54.93;93847.41;5053207;28;20037;-73
2023/07/05 00:12:01;;;;;;;13.23;9.98;;;;;;;22.53;54.79;93834.25;5054903;28;20056;-73
2023/07/05 00:14:27;;;;;;;10.98;9.80;;;;;;;22.61;54.56;93841.19;5054811;28;20086;-72
2023/07/05 00:16:53;;;;;;;12.70;8.88;;;;;;;22.64;53.99;93840.41;5054254;28;20828;-72
2023/07/05 00:19:18;;;;;;;12.60;10.13;;;;;;;22.56;53.87;93828.81;5053112;28;21211;-72
2023/07/05 00:21:44;;;;;;;14.48;9.50;;;;;;;22.61;53.45;93839.25;5054586;28;20036;-73
2023/07/05 00:24:09;;;;;;;10.38;8.77;;;;;;;22.67;53.37;93845.06;5054561;28;20100;-73
2023/07/05 00:26:34;;;;;;;10.75;9.55;;;;;;;22.61;53.86;93841.97;5055448;28;20055;-73
2023/07/05 00:29:00;;;;;;;11.15;9.00;;;;;;;22.56;54.47;93845.06;5054189;28;20045;-73
2023/07/05 00:31:25;;;;;;;10.48;9.38;;;;;;;22.43;54.56;93835.78;5056437;28;20028;-72
2023/07/05 00:33:51;;;;;;;10.75;8.73;;;;;;;22.51;54.78;93847.38;5053140;28;20073;-72
2023/07/05 00:36:16;;;;;;;9.90;8.90;;;;;;;22.36;54.69;93835.78;5055191;28;20401;-72
2023/07/05 00:38:42;;;;;;;11.77;9.15;;;;;;;22.40;54.63;93852.03;5051573;28;20091;-72
2023/07/05 00:41:07;;;;;;;13.27;9.32;;;;;;;22.45;54.80;93862.47;5056221;28;20606;-72
2023/07/05 00:43:33;;;;;;;10.18;9.15;;;;;;;22.32;54.95;93855.91;5053648;28;20036;-73
2023/07/05 00:46:15;;;;;;;12.52;10.73;;;;;;;22.32;55.71;93864.03;5054833;28;20040;-72
2023/07/05 00:48:54;;;;;;;15.45;11.23;;;;;;;22.33;56.33;93879.13;5051414;28;20044;-73
2023/07/05 00:51:54;;;;;;;11.65;10.43;;;;;;;22.36;56.56;93872.94;5054285;28;20044;-73
2023/07/05 00:54:26;;;;;;;11.57;10.30;;;;;;;22.11;56.85;93851.19;5027959;28;20131;-73
2023/07/05 00:57:00;;;;;;;15.60;10.18;;;;;;;22.15;56.97;93860.88;5055130;28;20044;-72
2023/07/05 00:59:30;;;;;;;14.93;10.43;;;;;;;22.26;57.54;93871.75;5052687;28;20610;-72
2023/07/05 01:01:56;;;;;;;11.35;10.23;;;;;;;22.22;57.76;93871.75;5053239;28;20075;-73
2023/07/05 01:04:22;;;;;;;13.98;11.80;;;;;;;22.14;58.08;93856.66;5053107;28;20108;-72
2023/07/05 01:06:47;;;;;;;14.35;11.65;;;;;;;22.19;58.53;93853.53;5053492;28;20047;-71
2023/07/05 01:09:13;;;;;;;13.45;11.00;;;;;;;22.21;58.65;93859.38;5054614;28;20048;-72
2023/07/05 01:12:06;;;;;;;12.32;10.65;;;;;;;22.20;59.43;93848.88;5053192;28;20934;-72
2023/07/05 01:14:40;;;;;;;13.82;10.75;;;;;;;22.16;59.83;93848.88;5052464;28;20131;-73
2023/07/05 01:17:22;;;;;;;14.02;10.10;;;;;;;22.17;59.22;93845.03;5053642;28;20059;-72
2023/07/05 01:20:16;;;;;;;11.73;10.52;;;;;;;22.23;59.12;93846.22;5053188;28;20518;-73
2023/07/05 01:23:20;;;;;;;12.75;11.45;;;;;;;22.24;58.93;93842.34;5050976;28;20488;-73
2023/07/05 01:25:48;;;;;;;12.57;11.10;;;;;;;22.21;58.90;93829.56;5052932;28;20458;-73
2023/07/05 01:28:36;;;;;;;14.23;11.48;;;;;;;22.11;59.31;93813.28;5053079;28;20043;-72
2023/07/05 01:31:14;;;;;;;12.77;10.65;;;;;;;22.22;59.20;93838.47;5051826;28;20055;-72
2023/07/05 01:34:09;;;;;;;14.48;10.88;;;;;;;22.24;59.09;93831.50;5050642;28;20124;-73
2023/07/05 01:36:35;;;;;;;13.40;10.70;;;;;;;22.23;59.07;93821.06;5038450;28;20037;-73
2023/07/05 01:39:01;;;;;;;11.27;9.73;;;;;;;22.23;59.13;93812.94;5051136;28;20041;-73
2023/07/05 01:41:26;;;;;;;17.83;11.45;;;;;;;22.09;58.98;93805.56;5054694;28;20044;-73
2023/07/05 01:43:52;;;;;;;10.57;9.50;;;;;;;22.15;59.42;93820.25;5052045;28;20056;-73
2023/07/05 01:46:37;;;;;;;12.02;10.40;;;;;;;22.08;59.37;93824.91;5054498;28;20496;-73
2023/07/05 01:49:21;;;;;;;10.35;9.25;;;;;;;22.03;59.37;93811.75;5050419;28;20037;-72
2023/07/05 01:52:09;;;;;;;11.18;9.95;;;;;;;22.08;59.28;93812.13;5052168;28;20037;-72
2023/07/05 01:54:34;;;;;;;13.73;11.13;;;;;;;21.97;59.05;93792.38;5051388;28;20058;-73
2023/07/05 01:57:07;;;;;;;12.43;11.15;;;;;;;22.04;58.44;93805.94;5052477;28;20044;-73
2023/07/05 02:00:05;;;;;;;13.05;10.48;;;;;;;22.05;58.18;93818.31;5052094;28;20036;-72
2023/07/05 02:02:37;;;;;;;12.90;10.13;;;;;;;22.02;58.40;93816.38;5051012;28;20043;-72
2023/07/05 02:05:05;;;;;;;14.13;10.43;;;;;;;21.90;58.04;93803.22;5050040;28;20032;-73
2023/07/05 02:07:31;;;;;;;11.65;9.30;;;;;;;21.97;58.31;93827.59;5052959;28;20351;-72
2023/07/05 02:09:57;;;;;;;12.35;9.75;;;;;;;21.95;58.09;93821.03;5053728;28;20095;-72
2023/07/05 02:12:24;;;;;;;12.82;10.77;;;;;;;21.85;58.47;93800.91;5052630;28;20608;-72
2023/07/05 02:14:50;;;;;;;12.18;10.48;;;;;;;21.94;58.34;93812.13;5050240;28;20041;-72
2023/07/05 02:17:15;;;;;;;12.05;10.77;;;;;;;21.94;58.42;93809.41;5070405;28;20032;-72
2023/07/05 02:19:41;;;;;;;11.20;10.10;;;;;;;21.88;58.36;93816.38;5049705;28;20116;-73
2023/07/05 02:22:07;;;;;;;11.75;10.50;;;;;;;21.80;58.51;93803.97;5053560;28;20098;-73
2023/07/05 02:24:32;;;;;;;11.35;10.18;;;;;;;21.84;58.27;93810.16;5052065;28;20033;-73
2023/07/05 02:26:59;;;;;;;14.38;10.63;;;;;;;21.76;58.65;93792.34;5052866;28;20432;-72
2023/07/05 02:29:25;;;;;;;14.73;10.88;;;;;;;21.78;58.44;93800.88;5050419;28;20040;-72
2023/07/05 02:31:50;;;;;;;11.27;10.18;;;;;;;21.77;58.63;93804.72;5051038;28;20027;-72
2023/07/05 02:34:16;;;;;;;11.68;10.35;;;;;;;21.76;58.72;93805.88;5052927;28;20031;-73
2023/07/05 02:36:41;;;;;;;11.55;10.35;;;;;;;21.62;58.90;93793.09;5049559;28;20041;-72
2023/07/05 02:39:07;;;;;;;18.55;10.85;;;;;;;21.72;58.83;93819.41;5051501;28;20508;-73
2023/07/05 02:41:32;;;;;;;12.15;10.68;;;;;;;21.66;59.02;93814.75;5050932;28;20040;-72
2023/07/05 02:43:58;;;;;;;14.40;11.13;;;;;;;21.61;58.97;93815.91;5051558;28;20024;-72
2023/07/05 02:46:25;;;;;;;15.77;11.75;;;;;;;21.59;58.93;93807.41;5051408;28;20446;-73
2023/07/05 02:48:52;;;;;;;12.05;10.88;;;;;;;21.32;59.04;93769.03;5051618;28;20042;-72
2023/07/05 02:51:18;;;;;;;13.82;11.00;;;;;;;21.53;59.27;93802.72;5051717;28;20055;-73
2023/07/05 02:53:43;;;;;;;14.23;10.85;;;;;;;21.53;59.49;93806.19;5050861;28;20040;-73
2023/07/05 02:56:08;;;;;;;15.57;10.40;;;;;;;21.58;59.15;93802.38;5050901;28;20376;-73
2023/07/05 02:58:34;;;;;;;13.93;10.32;;;;;;;21.55;59.27;93805.84;5051876;28;20640;-73
2023/07/05 03:00:59;;;;;;;11.68;10.18;;;;;;;21.48;59.07;93797.66;5050622;28;20080;-73
2023/07/05 03:03:26;;;;;;;12.00;10.07;;;;;;;21.48;59.21;93795.75;5050778;28;20068;-74
2023/07/05 03:05:56;;;;;;;12.63;10.80;;;;;;;21.43;58.98;93785.28;5052639;28;20041;-72
2023/07/05 03:08:21;;;;;;;13.50;10.90;;;;;;;21.38;59.08;93781.03;5049688;28;20036;-73
2023/07/05 03:10:46;;;;;;;11.25;10.05;;;;;;;21.45;58.67;93781.06;5050155;28;20411;-73
2023/07/05 03:13:12;;;;;;;11.98;10.65;;;;;;;21.40;58.70;93778.72;5051412;28;20016;-72
2023/07/05 03:15:37;;;;;;;12.25;10.95;;;;;;;21.28;58.73;93760.13;5052181;28;20087;-72
2023/07/05 03:18:03;;;;;;;13.40;10.32;;;;;;;21.41;58.58;93780.25;5051358;28;20069;-73
2023/07/05 03:20:28;;;;;;;12.80;10.90;;;;;;;21.42;59.38;93779.09;5052702;28;20503;-73
2023/07/05 03:22:53;;;;;;;14.55;11.00;;;;;;;21.38;59.28;93785.66;5051159;28;20024;-73
2023/07/05 03:25:19;;;;;;;12.20;11.00;;;;;;;21.45;59.46;93778.34;5053234;28;20726;-73
2023/07/05 03:27:44;;;;;;;13.13;10.50;;;;;;;21.43;59.63;93777.94;5050221;28;20151;-73
2023/07/05 03:30:10;;;;;;;14.40;12.63;;;;;;;21.51;60.00;93780.69;5051554;28;20351;-73
2023/07/05 03:32:36;;;;;;;15.18;11.00;;;;;;;21.36;60.56;93775.22;5049243;28;20127;-72
2023/07/05 03:35:02;;;;;;;13.82;12.18;;;;;;;21.45;60.49;93783.00;5051650;28;20044;-74
2023/07/05 03:37:28;;;;;;;12.93;11.63;;;;;;;21.51;60.62;93786.09;5050690;28;20153;-72
2023/07/05 03:39:54;;;;;;;14.10;12.60;;;;;;;21.53;61.54;93789.97;5051144;28;20043;-73
2023/07/05 03:42:19;;;;;;;16.92;13.10;;;;;;;21.49;61.32;93761.34;5052859;28;20040;-73
2023/07/05 03:44:45;;;;;;;16.83;12.00;;;;;;;21.63;60.97;93769.53;5050521;28;20044;-72
2023/07/05 03:47:10;;;;;;;12.20;10.88;;;;;;;21.69;61.31;93770.69;5052821;28;20120;-73
2023/07/05 03:49:35;;;;;;;16.45;12.38;;;;;;;21.75;61.16;93778.06;5051014;28;20031;-73
2023/07/05 03:52:01;;;;;;;16.60;13.70;;;;;;;21.78;61.17;93790.81;5052697;28;20546;-72
2023/07/05 03:54:28;;;;;;;15.75;12.50;;;;;;;21.78;61.18;93795.47;5048111;28;20063;-73
2023/07/05 03:56:53;;;;;;;16.52;11.65;;;;;;;21.75;61.12;93798.94;5051790;28;20514;-72
2023/07/05 03:59:19;;;;;;;14.15;12.23;;;;;;;21.77;61.59;93802.03;5051285;28;20041;-72
2023/07/05 04:01:44;;;;;;;14.57;13.05;;;;;;;21.70;62.02;93805.50;5050837;28;20028;-73
2023/07/05 04:04:09;;;;;;;15.68;12.80;;;;;;;21.67;62.60;93803.56;5052674;28;20036;-74
2023/07/05 04:06:35;;;;;;;16.55;13.38;;;;;;;21.50;63.02;93784.53;5050550;28;20094;-73
2023/07/05 04:09:01;;;;;;;16.90;13.32;;;;;;;21.54;63.54;93802.34;5053114;28;20037;-73
2023/07/05 04:11:26;;;;;;;14.98;12.88;;;;;;;21.44;63.65;93798.44;5066351;28;20123;-71
2023/07/05 04:13:54;;;;;;;14.75;12.40;;;;;;;21.37;64.42;93811.16;5052612;28;20028;-72
2023/07/05 04:16:22;;;;;;;16.30;13.02;;;;;;;21.52;63.94;93809.28;5051969;28;20610;-72
2023/07/05 04:18:51;;;;;;;17.63;13.23;;;;;;;21.62;63.05;93803.16;5043982;28;20545;-73
2023/07/05 04:21:17;;;;;;;19.70;12.82;;;;;;;21.48;63.38;93808.50;5050413;28;20066;-72
2023/07/05 04:23:43;;;;;;;16.65;13.15;;;;;;;21.64;62.98;93817.09;5054623;28;20032;-72
2023/07/05 04:26:14;;;;;;;16.83;13.43;;;;;;;21.63;63.04;93815.53;5053135;28;20479;-73
2023/07/05 04:28:41;;;;;;;17.17;13.32;;;;;;;21.69;63.08;93819.41;5056447;28;20049;-73
2023/07/05 04:31:17;;;;;;;15.48;13.77;;;;;;;21.66;63.14;93812.81;5053825;28;20047;-74
2023/07/05 04:33:42;;;;;;;15.77;13.77;;;;;;;21.66;62.88;93810.13;5054142;28;20081;-71
2023/07/05 04:36:08;;;;;;;16.55;13.65;;;;;;;21.72;62.70;93819.41;5056047;28;20036;-73
2023/07/05 04:38:34;;;;;;;16.92;13.30;;;;;;;21.78;62.96;93827.94;5053542;28;20302;-72
2023/07/05 04:41:00;;;;;;;18.20;13.95;;;;;;;21.84;62.70;93821.00;5056138;28;20160;-73
2023/07/05 04:43:26;;;;;;;17.13;14.27;;;;;;;21.91;62.18;93821.00;5054057;28;20538;-72
2023/07/05 04:45:57;;;;;;;19.67;14.68;;;;;;;21.92;60.99;93805.53;5056513;28;20032;-71
2023/07/05 04:48:23;;;;;;;16.95;14.55;;;;;;;22.05;60.90;93821.00;5052914;28;20174;-73
2023/07/05 04:50:52;;;;;;;15.10;13.45;;;;;;;22.09;60.46;93827.22;5054640;28;20509;-73
2023/07/05 04:53:19;;;;;;;26.35;14.80;;;;;;;22.12;59.98;93834.56;5055270;28;20048;-73
2023/07/05 04:55:49;;;;;;;16.42;13.88;;;;;;;22.19;60.08;93834.56;5054714;28;20016;-72
2023/07/05 04:58:15;;;;;;;16.55;14.75;;;;;;;22.25;59.78;93832.28;5054676;28;20067;-73
2023/07/05 05:00:46;;;;;;;18.05;14.57;;;;;;;22.24;59.84;93828.78;5053518;28;20095;-72
2023/07/05 05:03:13;;;;;;;21.38;14.40;;;;;;;22.33;59.86;93838.50;5055563;28;20786;-73
2023/07/05 05:05:39;;;;;;;15.18;13.57;;;;;;;22.40;60.35;93836.56;5054762;28;20040;-72
2023/07/05 05:08:05;;;;;;;23.63;14.85;;;;;;;22.57;60.42;93841.22;5052410;28;20059;-72
2023/07/05 05:10:30;;;;;;;19.42;14.15;;;;;;;22.56;59.03;93822.63;5055838;28;20170;-72
2023/07/05 05:12:55;;;;;;;17.13;14.82;;;;;;;22.04;58.38;93759.91;5052576;28;20449;-72
2023/07/05 05:15:21;;;;;;;19.45;14.73;;;;;;;22.59;59.02;93829.94;5054189;28;20059;-72
2023/07/05 05:17:46;;;;;;;18.15;14.80;;;;;;;22.72;59.00;93839.25;5054371;28;20459;-72
2023/07/05 05:20:11;;;;;;;20.63;14.23;;;;;;;22.81;58.71;93839.63;5054206;28;20692;-72
2023/07/05 05:22:37;;;;;;;19.13;13.85;;;;;;;22.61;58.45;93839.25;5052267;28;20072;-74
2023/07/05 05:25:02;;;;;;;17.52;14.52;;;;;;;22.61;58.64;93835.78;5054319;28;20127;-72
2023/07/05 05:27:28;;;;;;;20.17;14.10;;;;;;;22.82;59.00;93840.41;5052447;28;20086;-72
2023/07/05 05:29:53;;;;;;;18.02;14.32;;;;;;;22.85;59.35;93834.19;5055110;28;20127;-72
2023/07/05 05:32:18;;;;;;;19.77;14.80;;;;;;;22.97;58.72;93841.97;5051150;28;20044;-72
2023/07/05 05:34:44;;;;;;;19.00;14.45;;;;;;;22.91;58.26;93838.88;5048419;28;20051;-74
2023/07/05 05:37:09;;;;;;;21.52;14.65;;;;;;;23.01;57.82;93848.91;5053264;28;20036;-72
2023/07/05 05:39:35;;;;;;;17.10;13.57;;;;;;;23.01;58.26;93845.44;5054580;28;20048;-73
2023/07/05 05:42:00;;;;;;;19.10;13.18;;;;;;;23.11;57.96;93853.56;5052336;28;20036;-72
2023/07/05 05:44:25;;;;;;;18.05;14.73;;;;;;;23.19;57.45;93858.94;5054207;28;20521;-72
2023/07/05 05:46:51;;;;;;;20.83;14.38;;;;;;;23.15;57.31;93839.97;5051925;28;20556;-72
2023/07/05 05:49:16;;;;;;;20.27;15.55;;;;;;;23.34;57.63;93855.03;5053283;28;20225;-72
2023/07/05 05:51:41;;;;;;;18.52;15.98;;;;;;;23.33;56.25;93848.81;5051072;28;20481;-72
2023/07/05 05:54:07;;;;;;;22.27;15.88;;;;;;;23.41;57.07;93855.00;5054359;28;20067;-72
2023/07/05 05:56:32;;;;;;;21.42;16.23;;;;;;;23.40;57.04;93854.25;5051772;28;20047;-73
2023/07/05 05:58:57;;;;;;;20.40;14.68;;;;;;;23.41;57.25;93855.00;5054353;28;20030;-71
2023/07/05 06:01:23;;;;;;;19.90;13.68;;;;;;;23.53;57.14;93854.59;5052277;28;20117;-73
2023/07/05 06:03:48;;;;;;;18.92;14.13;;;;;;;23.61;57.58;93850.69;5053598;28;20412;-72
2023/07/05 06:06:14;;;;;;;18.88;14.80;;;;;;;23.61;57.20;93842.56;5053739;28;20041;-72
2023/07/05 06:08:39;;;;;;;14.95;13.38;;;;;;;23.56;57.52;93845.69;5053587;28;20198;-73
2023/07/05 06:11:04;;;;;;;22.92;15.90;;;;;;;23.61;56.96;93837.13;5052083;28;20424;-73
2023/07/05 06:13:31;;;;;;;16.63;14.43;;;;;;;23.71;56.94;93836.28;5052917;28;20396;-72
2023/07/05 06:15:58;;;;;;;21.15;14.43;;;;;;;23.60;57.19;93824.72;5068448;28;20034;-72
2023/07/05 06:18:26;;;;;;;20.13;14.38;;;;;;;23.61;56.22;93820.84;5053794;28;20072;-72
2023/07/05 06:20:51;;;;;;;19.63;15.25;;;;;;;23.81;56.52;93813.72;5049445;28;20038;-71
2023/07/05 06:23:17;;;;;;;21.33;13.30;;;;;;;24.02;56.27;93834.56;5053733;28;20041;-72
2023/07/05 06:25:49;;;;;;;25.08;14.23;;;;;;;23.97;56.10;93818.69;5051487;28;20025;-73
2023/07/05 06:28:18;;;;;;;16.60;13.40;;;;;;;24.16;56.15;93831.00;5053868;28;20044;-72
2023/07/05 06:30:46;;;;;;;16.58;13.27;;;;;;;24.17;55.23;93817.03;5050658;28;20041;-73
2023/07/05 06:33:14;;;;;;;21.40;14.45;;;;;;;24.35;55.07;93825.81;5053695;28;20047;-72
2023/07/05 06:35:39;;;;;;;14.50;12.82;;;;;;;24.44;54.21;93828.09;5051312;28;20827;-73
2023/07/05 06:38:05;;;;;;;19.42;13.20;;;;;;;24.39;55.21;93826.56;5053092;28;20111;-73
2023/07/05 06:40:30;;;;;;;17.23;13.27;;;;;;;24.54;54.53;93838.09;5053293;28;20027;-72
2023/07/05 06:42:55;;;;;;;18.90;13.25;;;;;;;24.46;54.47;93814.09;5053877;28;20075;-72
2023/07/05 06:45:21;;;;;;;16.25;13.75;;;;;;;24.51;54.24;93819.88;5050789;28;20097;-72
2023/07/05 06:47:47;;;;;;;14.25;12.55;;;;;;;24.54;54.52;93816.34;5053758;28;20059;-72
2023/07/05 06:50:13;;;;;;;15.35;12.30;;;;;;;24.59;54.19;93817.88;5050710;28;20118;-73
2023/07/05 06:52:39;;;;;;;16.40;12.80;;;;;;;24.65;54.12;93819.75;5046540;28;20035;-72
2023/07/05 06:55:06;;;;;;;15.55;12.88;;;;;;;24.76;53.42;93817.72;5049752;28;20040;-72
2023/07/05 06:57:32;;;;;;;20.30;13.52;;;;;;;24.85;53.07;93819.97;5051815;28;20490;-73
2023/07/05 06:59:57;;;;;;;16.33;12.93;;;;;;;24.91;52.93;93804.00;5052166;28;20504;-72
2023/07/05 07:02:23;;;;;;;22.50;11.43;;;;;;;24.85;52.62;93785.38;5067192;28;20122;-72
2023/07/05 07:04:48;;;;;;;14.13;11.32;;;;;;;24.90;51.76;93805.16;5050254;28;20638;-72
2023/07/05 07:07:13;;;;;;;16.73;11.73;;;;;;;25.11;51.73;93813.13;5053610;28;20058;-72
2023/07/05 07:09:40;;;;;;;14.73;11.38;;;;;;;25.20;52.21;93808.72;5051293;28;20044;-72
2023/07/05 07:12:07;;;;;;;16.98;11.95;;;;;;;25.23;51.11;93818.00;5052918;28;20032;-72
2023/07/05 07:14:33;;;;;;;26.80;12.93;;;;;;;25.33;52.02;93816.38;5052200;28;20025;-71
2023/07/05 07:16:58;;;;;;;14.30;12.68;;;;;;;25.41;51.42;93818.63;5053234;28;20061;-71
2023/07/05 07:19:23;;;;;;;19.90;13.45;;;;;;;25.44;50.82;93817.81;5051321;28;20029;-71
2023/07/05 07:21:49;;;;;;;21.23;13.60;;;;;;;25.53;51.56;93814.59;5052782;28;20036;-71
2023/07/05 07:24:15;;;;;;;17.77;12.43;;;;;;;25.55;51.17;93813.00;5051191;28;20531;-72
2023/07/05 07:26:40;;;;;;;15.13;12.70;;;;;;;25.15;50.88;93741.13;5050176;28;20137;-72
2023/07/05 07:29:06;;;;;;;15.32;12.23;;;;;;;25.61;50.85;93802.44;5051409;28;20087;-71
2023/07/05 07:31:32;;;;;;;15.63;12.88;;;;;;;25.56;51.24;93794.72;5052359;28;20024;-71
2023/07/05 07:34:00;;;;;;;21.35;12.88;;;;;;;25.54;50.33;93806.03;5050942;28;20033;-73
2023/07/05 07:36:28;;;;;;;16.45;12.20;;;;;;;25.53;51.31;93804.47;5051282;28;20514;-73
2023/07/05 07:38:54;;;;;;;15.35;10.98;;;;;;;25.66;50.97;93802.72;5051323;28;20182;-74
2023/07/05 07:41:22;;;;;;;17.08;12.23;;;;;;;25.79;50.72;93800.25;5052662;28;20037;-73
2023/07/05 07:43:52;;;;;;;14.70;11.07;;;;;;;25.80;50.73;93781.94;5050504;28;20032;-73
2023/07/05 07:46:22;;;;;;;17.38;14.25;;;;;;;25.83;49.88;93800.97;5052045;28;20035;-73
2023/07/05 07:48:50;;;;;;;15.45;11.98;;;;;;;25.81;49.65;93797.88;5050169;28;20032;-73
2023/07/05 07:51:18;;;;;;;17.55;11.25;;;;;;;25.79;48.47;93796.75;5049618;28;20051;-73
2023/07/05 07:53:43;;;;;;;17.02;12.68;;;;;;;25.61;49.48;93795.03;5051855;28;20037;-71
2023/07/05 07:56:14;;;;;;;16.23;13.48;;;;;;;25.82;50.19;93785.03;5050639;28;20471;-73
2023/07/05 07:58:40;;;;;;;14.73;13.15;;;;;;;25.76;49.28;93790.19;5054796;28;20028;-74
2023/07/05 08:01:13;;;;;;;18.67;12.65;;;;;;;25.81;48.90;93791.66;5053503;28;20078;-73
2023/07/05 08:03:38;;;;;;;16.55;12.15;;;;;;;25.77;48.79;93797.16;5055369;28;20032;-74
2023/07/05 08:06:06;;;;;;;16.25;12.10;;;;;;;25.37;49.16;93768.88;5057296;28;20067;-73
2023/07/05 08:08:32;;;;;;;17.27;12.45;;;;;;;25.60;48.83;93798.94;5055680;28;20043;-73
2023/07/05 08:10:58;;;;;;;12.70;11.48;;;;;;;25.65;48.77;93795.00;5054320;28;20033;-74
2023/07/05 08:13:23;;;;;;;15.50;12.48;;;;;;;25.46;48.13;93784.75;5055005;28;20020;-74
2023/07/05 08:15:48;;;;;;;14.63;12.40;;;;;;;25.51;48.10;93789.72;5055372;28;20029;-71
2023/07/05 08:18:14;;;;;;;14.93;12.05;;;;;;;25.55;48.57;93793.19;5055977;28;20156;-70
2023/07/05 08:20:39;;;;;;;14.30;11.15;;;;;;;25.54;48.63;93797.84;5053576;28;21160;-75
2023/07/05 08:23:05;;;;;;;12.80;11.38;;;;;;;25.63;48.83;93792.66;5055191;28;20166;-72
2023/07/05 08:25:34;;;;;;;12.52;11.23;;;;;;;25.74;49.18;93808.09;5054728;28;20032;-73
2023/07/05 08:28:00;;;;;;;13.48;10.90;;;;;;;25.77;48.84;93799.88;5052539;28;20584;-73
2023/07/05 08:30:26;;;;;;;14.20;11.65;;;;;;;25.74;48.09;93799.94;5070187;28;20588;-72
2023/07/05 08:32:51;;;;;;;17.33;10.88;;;;;;;25.69;48.08;93782.88;5055475;28;20039;-72
2023/07/05 08:35:17;;;;;;;14.50;9.45;;;;;;;25.76;47.66;93786.69;5053263;28;20075;-72
2023/07/05 08:37:48;;;;;;;16.23;10.23;;;;;;;25.88;47.64;93802.44;5054998;28;20021;-72
2023/07/05 08:40:17;;;;;;;11.90;10.07;;;;;;;25.89;47.95;93804.03;5054933;28;20078;-73
2023/07/05 08:43:12;;;;;;;11.50;10.00;;;;;;;25.79;46.82;93796.75;5053626;28;20032;-72
2023/07/05 08:45:43;;;;;;;8.80;7.93;;;;;;;25.78;45.80;93792.47;5046576;28;20051;-73
2023/07/05 08:48:11;;;;;;;9.48;8.55;;;;;;;25.85;46.07;93792.38;5054558;28;20036;-72
2023/07/05 08:50:44;;;;;;;10.02;9.02;;;;;;;25.77;45.62;93788.97;5055610;28;20041;-73
2023/07/05 08:53:20;;;;;;;16.83;10.20;;;;;;;25.80;46.31;93790.13;5053704;28;20046;-72
2023/07/05 08:55:58;;;;;;;19.33;8.90;;;;;;;25.67;46.90;93782.50;5055927;28;20154;-72
2023/07/05 08:58:26;;;;;;;11.45;9.35;;;;;;;25.69;46.86;93788.31;5053274;28;20505;-72
2023/07/05 09:00:57;;;;;;;10.18;9.10;;;;;;;25.81;47.10;93780.78;5053400;28;20404;-72
2023/07/05 09:03:24;;;;;;;10.30;9.20;;;;;;;26.05;47.76;93785.13;5053356;28;20056;-72
2023/07/05 09:05:55;;;;;;;11.63;9.82;;;;;;;26.14;47.11;93785.38;5053940;28;20499;-72
2023/07/05 09:09:14;;;;;;;13.52;9.95;;;;;;;26.26;48.05;93778.56;5053160;28;20045;-73
2023/07/05 09:12:03;;;;;;;10.70;9.38;;;;;;;26.30;47.31;93779.28;4996231;28;20037;-74
2023/07/05 09:14:55;;;;;;;11.40;9.75;;;;;;;26.39;46.11;93765.91;4996809;28;20037;-72
2023/07/05 09:17:32;;;;;;;11.88;10.43;;;;;;;26.42;46.49;93765.84;5048839;28;20040;-72
2023/07/05 09:20:19;;;;;;;10.30;9.18;;;;;;;26.38;45.87;93761.63;5053304;28;20024;-72
2023/07/05 09:22:47;;;;;;;15.80;11.02;;;;;;;26.38;46.90;93754.22;5054040;28;20047;-72
2023/07/05 09:25:17;;;;;;;22.95;9.98;;;;;;;26.47;46.66;93757.22;5053726;28;20040;-74
2023/07/05 09:27:49;;;;;;;10.65;9.55;;;;;;;26.37;46.99;93741.00;5050092;28;20037;-72
2023/07/05 09:30:24;;;;;;;13.60;10.07;;;;;;;26.34;48.14;93734.44;5054089;28;20060;-73
2023/07/05 09:33:02;;;;;;;11.60;10.07;;;;;;;26.47;46.59;93754.47;5053627;28;20063;-72
2023/07/05 09:35:29;;;;;;;13.93;10.40;;;;;;;26.47;46.36;93751.75;5053159;28;20581;-73
2023/07/05 09:38:01;;;;;;;13.98;10.05;;;;;;;26.52;46.88;93756.72;5055089;28;20036;-72
2023/07/05 09:40:31;;;;;;;11.40;8.50;;;;;;;26.50;45.38;93759.09;5052231;28;20075;-74
2023/07/05 09:43:05;;;;;;;10.35;9.35;;;;;;;26.47;46.77;93735.38;5054257;28;20039;-72
2023/07/05 09:45:31;;;;;;;10.37;9.20;;;;;;;26.46;46.11;93733.84;5053776;28;20040;-72
2023/07/05 09:48:02;;;;;;;10.43;8.02;;;;;;;26.63;45.80;93755.78;5053084;28;20028;-73
2023/07/05 09:50:29;;;;;;;8.82;8.00;;;;;;;26.55;44.67;93746.94;5052499;28;20076;-73
2023/07/05 09:53:14;;;;;;;8.93;8.02;;;;;;;26.65;45.35;93754.16;5053131;28;20028;-72
2023/07/05 09:56:03;;;;;;;11.05;8.20;;;;;;;26.52;44.18;93751.28;5054318;28;21033;-72
2023/07/05 09:58:28;;;;;;;8.30;7.30;;;;;;;26.43;44.80;93745.56;5052559;28;20591;-73
2023/07/05 10:00:54;;;;;;;10.65;8.52;;;;;;;26.47;45.43;93746.28;5052690;28;20036;-72
2023/07/05 10:03:21;;;;;;;8.95;8.05;;;;;;;26.50;45.48;93736.50;5053794;28;20040;-72
2023/07/05 10:05:54;;;;;;;8.52;7.20;;;;;;;26.62;46.10;93744.09;5054428;28;20059;-72
2023/07/05 10:08:22;;;;;;;14.35;9.18;;;;;;;26.63;45.81;93750.31;5052597;28;20101;-74
2023/07/05 10:10:48;;;;;;;10.30;8.23;;;;;;;26.68;46.15;93745.16;5045171;28;20024;-74
2023/07/05 10:13:19;;;;;;;9.73;8.73;;;;;;;26.64;45.78;93749.13;5051934;28;20142;-72
2023/07/05 10:15:50;;;;;;;9.45;8.45;;;;;;;26.66;45.84;93744.03;5053319;28;20412;-73
2023/07/05 10:18:25;;;;;;;13.50;8.98;;;;;;;26.76;45.96;93743.06;5053901;28;20131;-72
2023/07/05 10:20:50;;;;;;;10.60;9.07;;;;;;;26.83;45.58;93741.00;5050885;28;20036;-72
2023/07/05 10:23:19;;;;;;;9.80;8.57;;;;;;;26.88;45.58;93737.00;5054147;28;20086;-71
2023/07/05 10:25:46;;;;;;;16.58;9.50;;;;;;;26.86;46.22;93736.63;5049753;28;20981;-73
2023/07/05 10:28:19;;;;;;;10.60;8.90;;;;;;;26.85;46.21;93726.91;5053705;28;20414;-72
2023/07/05 10:30:56;;;;;;;9.50;8.60;;;;;;;26.88;46.50;93737.78;5050472;28;20515;-72
2023/07/05 10:33:30;;;;;;;10.82;8.38;;;;;;;26.84;45.59;93730.81;5053685;28;20037;-72
2023/07/05 10:36:09;;;;;;;14.05;8.60;;;;;;;26.75;44.35;93736.06;5053209;28;20031;-72
2023/07/05 10:38:41;;;;;;;10.13;7.82;;;;;;;26.77;44.21;93736.41;5052025;28;20450;-72
2023/07/05 10:41:34;;;;;;;15.85;8.35;;;;;;;26.86;45.00;93728.44;5051617;28;20028;-72
2023/07/05 10:44:34;;;;;;;10.15;7.90;;;;;;;26.83;44.39;93729.31;5052180;28;20110;-73
2023/07/05 10:47:03;;;;;;;10.65;7.93;;;;;;;26.78;43.91;93721.59;5045232;28;20044;-72
2023/07/05 10:49:30;;;;;;;8.95;8.05;;;;;;;26.78;44.49;93722.38;5052324;28;20031;-72
2023/07/05 10:52:00;;;;;;;11.77;7.13;;;;;;;26.90;45.31;93723.69;5048736;28;20148;-72
2023/07/05 10:54:47;;;;;;;18.52;9.07;;;;;;;26.95;44.42;93725.94;5051053;28;20028;-72
2023/07/05 10:57:43;;;;;;;9.45;8.00;;;;;;;27.00;45.17;93728.19;5052957;28;20119;-72
2023/07/05 11:00:28;;;;;;;12.18;8.02;;;;;;;27.05;45.67;93735.91;5050785;28;20041;-72
2023/07/05 11:03:10;;;;;;;8.93;7.55;;;;;;;27.02;45.22;93733.25;5049970;28;20064;-72
2023/07/05 11:05:42;;;;;;;11.00;7.97;;;;;;;26.99;45.73;93737.53;5053341;28;20056;-73
2023/07/05 11:08:17;;;;;;;11.88;8.43;;;;;;;26.84;46.92;93728.09;5050929;28;20037;-72
2023/07/05 11:10:44;;;;;;;8.85;7.95;;;;;;;26.91;47.53;93766.16;5052695;28;20599;-72
2023/07/05 11:13:17;;;;;;;13.40;9.35;;;;;;;26.91;48.90;93763.44;5049406;28;20774;-72
2023/07/05 11:15:44;;;;;;;12.00;9.48;;;;;;;26.98;49.08;93747.69;5052629;28;20064;-73
2023/07/05 11:18:23;;;;;;;11.15;9.57;;;;;;;26.86;49.53;93725.72;5051672;28;20508;-72
2023/07/05 11:20:54;;;;;;;15.48;9.60;;;;;;;27.02;49.35;93744.94;5051099;28;20051;-72
2023/07/05 11:23:42;;;;;;;12.90;9.35;;;;;;;27.09;49.41;93746.75;5052779;28;20068;-71
2023/07/05 11:26:08;;;;;;;19.08;11.07;;;;;;;26.92;48.36;93743.16;5051620;28;20045;-73
2023/07/05 11:28:40;;;;;;;24.77;10.90;;;;;;;26.41;48.58;93747.91;5054774;28;20017;-73
2023/07/05 11:31:07;;;;;;;13.23;7.25;;;;;;;26.30;48.81;93735.66;5050840;28;20096;-73